Камери на живо
METAR for:LBGO (Gorna Orechovista Ar, LO, BU)
Text:LBGO 051000Z AUTO 26011KT 9999 FEW068 12/04 Q1023 NOSIG
Temperature: 12.0°C ( 54°F)
Dewpoint: 4.0°C ( 39°F) [RH = 58%]
Pressure (altimeter):30.21 inches Hg (1023.0 mb)
Winds:from the W (260 degrees) at 13 MPH (11 knots; 5.7 m/s)
Visibility:6 or more sm (10+ km)
Ceiling:at least 12,000 feet AGL
Clouds: few clouds at 6800 feet AGL

TAF for:LBGO (Gorna Orechovista Ar, LO, BU) issued at 0500 UTC 05 Apr 2020
Text:TAF LBGO 050500Z 0506/0606 28008KT 9999 BKN060
Forecast period:0600 to 0800 UTC 05 April 2020
Forecast type:FROM: standard forecast or significant change
Winds:from the W (280 degrees) at 9 MPH (8 knots; 4.1 m/s)
Visibility:6 or more sm (10+ km)
Ceiling:6000 feet AGL
Clouds: broken clouds at 6000 feet AGL
Text:BECMG 0508/0510 06012KT
Forecast period:0800 UTC 05 April 2020 to 0600 UTC 06 April 2020
Forecast type:BECOMING: Conditions expected to become as follows by 1000 UTC 05 April 2020
Winds:from the ENE (60 degrees) at 14 MPH (12 knots; 6.2 m/s)
Visibility:6 or more sm (10+ km)
Ceiling:6000 feet AGL
Clouds: broken clouds at 6000 feet AGL
Text:TEMPO 0512/0518 05016G26KT
Forecast period:1200 to 1800 UTC 05 April 2020
Forecast type:TEMPORARY: The following changes expected for less than half the time period
Winds:from the NE (50 degrees) at 18 MPH (16 knots; 8.2 m/s) gusting to 30 MPH (26 knots; 13.4 m/s)
Clouds:missing